Fida — V7YD5 — position and weather

sailwx.info

Track history (hours):
 
Tides and Currents Weather Stations Pressure Air Temp Water Temp Dewpoint Dewpoint Depression Visibility Wind Speed Wind Dir Waves Ship Positions

Fida

Last reported at 2018-May-20 23:56 UTC. Time now 2018-May-23 22:07 UTC.
Position N 19°44' E 066°44'.

Length 333 m; draft 11.3 m.

Type: Tanker. MMSI: 538004633.

Date/timePositionNaut miles runAvg speedWind from/ knotsBaromVisibWave heightAir tempDewpointWater temp
2018-May-20 23:56N 19°44' E 066°44'510.8
2018-May-20 23:30N 19°40' E 066°47'2810.7
2018-May-20 20:53N 19°17' E 067°04'510.7
2018-May-20 20:28N 19°14' E 067°07'510.8
2018-May-20 20:00N 19°10' E 067°10'510.7
2018-May-20 19:31N 19°05' E 067°13'510.7
2018-May-20 19:00N 19°01' E 067°16'510.8
2018-May-20 18:31N 18°57' E 067°20'611.0
2018-May-20 18:00N 18°52' E 067°23'510.9
2018-May-20 17:30N 18°48' E 067°26'610.6
2018-May-20 16:57N 18°43' E 067°30'1210.2
2018-May-20 15:45N 18°33' E 067°37'310.4
2018-May-20 15:29N 18°31' E 067°39'610.4
2018-May-20 14:56N 18°26' E 067°43'510.4
2018-May-20 14:26N 18°22' E 067°46'410.4
2018-May-20 14:00N 18°18' E 067°48'2910.3
2018-May-20 11:09N 17°54' E 068°06'110.0
2018-May-20 11:00N 17°53' E 068°07'5 9.9
2018-May-20 10:29N 17°49' E 068°10'510.2
2018-May-20 10:00N 17°44' E 068°13'510.3
2018-May-20 09:30N 17°40' E 068°16'910.3
2018-May-20 08:36N 17°33' E 068°22'110.3
2018-May-20 08:31N 17°32' E 068°22'9110.8
2018-May-20 00:06N 16°18' E 069°17'110.6
2018-May-19 23:59N 16°17' E 069°18'  
Track history (hours):
 
Tides and Currents Weather Stations Pressure Air Temp Water Temp Dewpoint Dewpoint Depression Visibility Wind Speed Wind Dir Waves Ship Positions

Fida

Last reported at 2018-May-20 23:56 UTC. Time now 2018-May-23 22:07 UTC.
Position N 19°44' E 066°44'.

Length 333 m; draft 11.3 m.

Type: Tanker. MMSI: 538004633.

Date/timePositionNaut miles runAvg speedWind from/ knotsBaromVisibWave heightAir tempDewpointWater temp
2018-May-20 23:56N 19°44' E 066°44'510.8
2018-May-20 23:30N 19°40' E 066°47'2810.7
2018-May-20 20:53N 19°17' E 067°04'510.7
2018-May-20 20:28N 19°14' E 067°07'510.8
2018-May-20 20:00N 19°10' E 067°10'510.7
2018-May-20 19:31N 19°05' E 067°13'510.7
2018-May-20 19:00N 19°01' E 067°16'510.8
2018-May-20 18:31N 18°57' E 067°20'611.0
2018-May-20 18:00N 18°52' E 067°23'510.9
2018-May-20 17:30N 18°48' E 067°26'610.6
2018-May-20 16:57N 18°43' E 067°30'1210.2
2018-May-20 15:45N 18°33' E 067°37'310.4
2018-May-20 15:29N 18°31' E 067°39'610.4
2018-May-20 14:56N 18°26' E 067°43'510.4
2018-May-20 14:26N 18°22' E 067°46'410.4
2018-May-20 14:00N 18°18' E 067°48'2910.3
2018-May-20 11:09N 17°54' E 068°06'110.0
2018-May-20 11:00N 17°53' E 068°07'5 9.9
2018-May-20 10:29N 17°49' E 068°10'510.2
2018-May-20 10:00N 17°44' E 068°13'510.3
2018-May-20 09:30N 17°40' E 068°16'910.3
2018-May-20 08:36N 17°33' E 068°22'110.3
2018-May-20 08:31N 17°32' E 068°22'9110.8
2018-May-20 00:06N 16°18' E 069°17'110.6
2018-May-19 23:59N 16°17' E 069°18'  

Dump ship's entire track history